Latest Coastal Weather Observations for Moruya Airport

IDN60701

Issued at 8:15 pm EST Tuesday 23 September 2014 (issued every 10 minutes, with the page automatically refreshed every 10 minutes)

About coastal observations | Map of coastal stations | Coastal observations for NSW | Marine services | Other Formats
Station Details ID: 069148 Name: MORUYA AIRPORT AWS Lat: -35.90 Lon: 150.14 Height: 4.0 m
Data from the previous 72 hours. | See also: Recent months for locations in New South Wales
Date/Time
EST
Temp

°C
Wind Pressure Rain
since 9am
mm
Weather Cloud Vis
km
Sea
Height
m
Swell
Dir
 
Speed
knots
Gust
knots
hPa Trend Height
m
Period
s
Dir
23/08:00pm 11.8 NW 0 0 1025.5 - 0.0 - - 10 - - - -
23/07:30pm 12.0 CALM 0 0 1025.5 - 0.0 - - 10 - - - -
23/07:00pm 13.6 NNW 3 4 1025.2 - 0.0 - - 10 - - - -
23/06:30pm 16.3 NNE 8 11 1024.8 - 0.0 - - 9 - - - -
23/06:00pm 16.6 NNE 8 12 1024.6 - 0.0 - - 10 - - - -
23/05:30pm 17.5 NNE 9 12 1024.6 - 0.0 - - 10 - - - -
23/05:00pm 18.0 NNE 9 12 1024.7 - 0.0 - - 10 - - - -
23/04:30pm 18.6 NNE 10 13 1025.0 - 0.0 - - 10 - - - -
23/04:00pm 19.0 NE 9 13 1024.9 - 0.0 - - 10 - - - -
23/03:30pm 18.8 NE 11 14 1024.8 - 0.0 - - 10 - - - -
23/03:00pm 19.1 NE 11 13 1024.8 - 0.0 - - 10 - - - -
23/02:30pm 19.3 NE 10 14 1025.0 - 0.0 - - 10 - - - -
23/02:00pm 19.3 NE 11 14 1025.2 - 0.0 - - 10 - - - -
23/01:30pm 19.1 ENE 11 13 1025.7 - 0.0 - - 10 - - - -
23/01:00pm 19.2 ENE 11 13 1026.1 - 0.0 - - 10 - - - -
23/12:30pm 18.3 NE 10 12 1026.4 - 0.0 - - 10 - - - -
23/12:00pm 18.3 ENE 11 13 1026.6 - 0.0 - - 10 - - - -
23/11:30am 18.2 ENE 9 10 1027.2 - 0.0 - - 10 - - - -
23/11:00am 17.9 E 7 8 1027.7 - 0.0 - - 10 - - - -
23/10:30am 17.0 ENE 7 8 1028.1 - 0.0 - - 10 - - - -
23/10:00am 16.2 ENE 7 8 1028.2 - 0.0 - - 10 - - - -
23/09:30am 16.1 NE 7 8 1028.2 - 0.0 - - 10 - - - -
23/09:00am 15.9 ENE 5 6 1028.7 - 0.0 - - 10 - - - -
23/08:30am 14.1 SSW 5 6 1028.9 - 0.0 - - 10 - - - -
23/08:00am 12.6 W 1 5 1029.0 - 0.0 - - 10 - - - -
23/07:30am 10.8 CALM 0 2 1028.9 - 0.0 - - 10 - - - -
23/07:00am 8.9 CALM 0 3 1028.8 - 0.0 - - 10 - - - -
23/06:30am 6.6 CALM 0 0 1028.7 - 0.0 - - 10 - - - -
23/06:00am 5.3 NW 3 4 1028.7 - 0.0 - - 8 - - - -
23/05:31am 5.5 NW 3 4 1028.6 - 0.0 - - 7 - - - -
23/05:30am 5.5 NW 3 4 1028.6 - 0.0 - - 7 - - - -
23/05:00am 5.7 CALM 0 0 1028.5 - 0.0 - - 4 - - - -
23/04:46am 5.8 CALM 0 0 1028.4 - 0.0 - - 5 - - - -
23/04:30am 5.5 CALM 0 0 1028.3 - 0.0 - - 7 - - - -
23/04:00am 5.8 CALM 0 0 1028.1 - 0.0 - - 8 - - - -
23/03:58am 5.6 CALM 0 0 1028.1 - 0.0 - - 10 - - - -
23/03:30am 6.3 NW 1 4 1028.1 - 0.0 - - 4 - - - -
23/03:00am 6.5 CALM 0 0 1028.1 - 0.0 - - 6 - - - -
23/02:30am 6.1 CALM 0 0 1028.2 - 0.0 - - 1 - - - -
23/02:08am 6.4 CALM 0 0 1028.3 - 0.0 - - 5 - - - -
23/02:00am 7.1 CALM 0 0 1028.4 - 0.0 - - 8 - - - -
23/01:54am 6.8 CALM 0 0 1028.4 - 0.0 - - 7 - - - -
23/01:36am 6.6 CALM 0 0 1028.5 - 0.0 - - 5 - - - -
23/01:30am 7.0 CALM 0 0 1028.6 - 0.0 - - 6 - - - -
23/01:00am 7.3 CALM 0 0 1029.0 - 0.0 - - 6 - - - -
23/12:30am 7.6 CALM 0 0 1029.3 - 0.0 - - 9 - - - -
23/12:19am 7.5 CALM 0 0 1029.4 - 0.0 - - 9 - - - -
23/12:06am 7.6 CALM 0 0 1029.5 - 0.0 - - 5 - - - -
23/12:00am 7.8 WNW 0 0 1029.5 - 0.0 - - 8 - - - -
 
Date/Time
EST
Temp

°C
Wind Pressure Rain
since 9am
mm
Weather Cloud Vis
km
Sea
Height
m
Swell
Dir
 
Speed
knots
Gust
knots
hPa Trend Height
m
Period
s
Dir
22/11:30pm 8.0 CALM 0 0 1029.6 - 0.0 - - 7 - - - -
22/11:00pm 8.1 WNW 2 4 1029.7 - 0.0 - - 10 - - - -
22/10:30pm 8.9 CALM 0 0 1029.9 - 0.0 - - 10 - - - -
22/10:00pm 9.2 CALM 0 0 1030.0 - 0.0 - - 10 - - - -
22/09:30pm 9.3 CALM 0 0 1030.2 - 0.0 - - 10 - - - -
22/09:00pm 9.5 CALM 0 0 1030.2 - 0.0 - - 10 - - - -
22/08:30pm 9.8 CALM 0 0 1030.1 - 0.0 - - 10 - - - -
22/08:00pm 10.3 NW 3 4 1029.9 - 0.0 - - 10 - - - -
22/07:30pm 11.3 NNW 3 4 1029.6 - 0.0 - - 10 - - - -
22/07:00pm 13.1 N 4 5 1029.3 - 0.0 - - 10 - - - -
22/06:30pm 14.3 N 7 9 1029.0 - 0.0 - - 10 - - - -
22/06:00pm 15.6 NNE 9 11 1028.7 - 0.0 - - 10 - - - -
22/05:30pm 16.0 NNE 9 11 1028.7 - 0.0 - - 10 - - - -
22/05:00pm 16.5 NE 9 12 1028.6 - 0.0 - - 10 - - - -
22/04:30pm 16.7 NE 10 13 1028.4 - 0.0 - - 10 - - - -
22/04:00pm 17.1 NE 10 13 1028.3 - 0.0 - - 10 - - - -
22/03:30pm 17.2 NE 11 14 1028.4 - 0.0 - - 10 - - - -
22/03:00pm 17.4 NE 11 13 1028.5 - 0.0 - - 10 - - - -
22/02:30pm 17.8 NE 11 14 1028.6 - 0.0 - - 10 - - - -
22/02:00pm 17.7 NE 12 14 1028.7 - 0.0 - - 10 - - - -
22/01:30pm 17.7 NE 11 13 1028.9 - 0.0 - - 10 - - - -
22/01:00pm 17.5 ENE 10 11 1029.3 - 0.0 - - 10 - - - -
22/12:30pm 17.6 ENE 10 11 1029.6 - 0.0 - - 10 - - - -
22/12:00pm 17.7 ENE 9 11 1030.0 - 0.0 - - 10 - - - -
22/11:30am 17.3 ENE 9 12 1030.5 - 0.0 - - 10 - - - -
22/11:00am 17.2 E 8 10 1030.9 - 0.0 - - 10 - - - -
22/10:30am 17.3 E 8 10 1031.1 - 0.0 - - 10 - - - -
22/10:00am 16.4 E 6 8 1031.3 - 0.0 - - 10 - - - -
22/09:30am 16.4 ESE 5 7 1031.4 - 0.0 - - 10 - - - -
22/09:00am 15.7 NNW 2 5 1031.6 - 0.0 - - 10 - - - -
22/08:30am 13.7 SW 6 7 1031.6 - 0.0 - - 10 - - - -
22/08:00am 12.5 WSW 3 7 1031.7 - 0.0 - - 10 - - - -
22/07:30am 10.6 WSW 1 4 1031.7 - 0.0 - - 10 - - - -
22/07:00am 8.5 SW 5 7 1031.4 - 0.0 - - 10 - - - -
22/06:30am 6.3 W 1 3 1031.2 - 0.0 - - 10 - - - -
22/06:00am 5.1 W 2 4 1030.8 - 0.0 - - 8 - - - -
22/05:30am 4.9 CALM 0 0 1030.5 - 0.0 - - 8 - - - -
22/05:00am 5.2 WSW 3 4 1030.2 - 0.0 - - 9 - - - -
22/04:30am 5.3 WSW 3 4 1029.9 - 0.0 - - 10 - - - -
22/04:00am 5.5 CALM 0 0 1029.6 - 0.0 - - 9 - - - -
22/03:30am 5.6 NW 2 4 1029.6 - 0.0 - - 9 - - - -
22/03:00am 6.4 NW 4 5 1029.6 - 0.0 - - 10 - - - -
22/02:30am 7.0 NW 4 5 1030.0 - 0.0 - - 10 - - - -
22/02:00am 7.6 NW 6 6 1030.3 - 0.0 - - 10 - - - -
22/01:30am 7.6 WNW 3 4 1030.4 - 0.0 - - 10 - - - -
22/01:00am 8.3 NW 3 4 1030.7 - 0.0 - - 10 - - - -
22/12:30am 9.5 NW 4 5 1031.0 - 0.0 - - 10 - - - -
22/12:00am 10.5 WNW 3 5 1031.0 - 0.0 - Partly cloudy 10 - - - -
 
Date/Time
EST
Temp

°C
Wind Pressure Rain
since 9am
mm
Weather Cloud Vis
km
Sea
Height
m
Swell
Dir
 
Speed
knots
Gust
knots
hPa Trend Height
m
Period
s
Dir
21/11:30pm 10.9 WSW 4 5 1031.3 - 0.0 - Cloudy 10 - - - -
21/11:00pm 11.2 WNW 1 4 1031.2 - 0.0 - Cloudy 10 - - - -
21/10:30pm 11.3 W 3 5 1031.3 - 0.0 - Cloudy 10 - - - -
21/10:00pm 11.0 W 3 4 1031.4 - 0.0 - Cloudy 10 - - - -
21/09:30pm 10.4 WNW 4 6 1031.1 - 0.0 - Cloudy 10 - - - -
21/09:00pm 9.0 W 2 4 1031.0 - 0.0 - Cloudy 10 - - - -
21/08:30pm 8.1 WNW 3 5 1030.8 - 0.0 - Partly cloudy 10 - - - -
21/08:00pm 8.8 CALM 0 0 1030.5 - 0.0 - - 10 - - - -
21/07:30pm 9.3 CALM 0 0 1030.4 - 0.0 - - 10 - - - -
21/07:00pm 10.1 CALM 0 0 1030.2 - 0.0 - - 10 - - - -
21/06:30pm 12.1 SE 3 5 1029.9 - 0.0 - - 10 - - - -
21/06:00pm 14.2 ESE 5 7 1029.5 - 0.0 - - 10 - - - -
21/05:30pm 14.8 ESE 5 8 1029.4 - 0.0 - - 10 - - - -
21/05:00pm 15.5 E 5 7 1028.9 - 0.0 - - 10 - - - -
21/04:30pm 15.8 E 6 7 1028.7 - 0.0 - - 10 - - - -
21/04:00pm 16.3 E 7 9 1028.4 - 0.0 - - 10 - - - -
21/03:30pm 16.6 E 7 9 1028.1 - 0.0 - - 10 - - - -
21/03:00pm 16.5 ENE 9 11 1028.0 - 0.0 - - 10 - - - -
21/02:30pm 16.7 E 9 11 1028.1 - 0.0 - - 10 - - - -
21/02:00pm 16.5 E 10 13 1028.1 - 0.0 - - 10 - - - -
21/01:30pm 16.5 E 10 12 1028.4 - 0.0 - - 10 - - - -
21/01:00pm 16.9 E 10 12 1028.6 - 0.0 - - 10 - - - -
21/12:30pm 17.1 E 9 11 1028.7 - 0.0 - - 10 - - - -
21/12:00pm 17.5 ENE 9 11 1029.1 - 0.0 - - 10 - - - -
21/11:30am 17.2 ENE 9 10 1029.5 - 0.0 - - 10 - - - -
21/11:00am 16.4 ENE 8 10 1030.0 - 0.0 - - 10 - - - -
21/10:30am 16.6 E 7 8 1030.2 - 0.0 - Partly cloudy 10 - - - -
21/10:00am 16.2 ENE 7 9 1030.2 - 0.0 - - 10 - - - -
21/09:30am 16.1 ENE 6 7 1030.4 - 0.0 - - 10 - - - -
21/09:00am 15.2 SSW 3 5 1030.7 - 0.0 - - 10 - - - -
21/08:30am 14.4 SW 4 5 1030.7 - 0.0 - Partly cloudy 10 - - - -
21/08:00am 12.4 WSW 5 6 1030.7 - 0.0 - Partly cloudy 10 - - - -
21/07:30am 11.3 SW 4 7 1030.4 - 0.0 - Partly cloudy 10 - - - -
21/07:00am 11.0 CALM 0 0 1030.0 - 0.0 - Partly cloudy 10 - - - -
21/06:30am 10.5 WSW 2 4 1029.5 - 0.0 - Partly cloudy 10 - - - -
21/06:00am 10.2 W 1 4 1028.8 - 0.0 - Cloudy 10 - - - -
21/05:30am 9.9 WNW 1 3 1028.4 - 0.0 - Partly cloudy 10 - - - -
21/05:00am 9.5 W 1 3 1028.1 - 0.0 - Partly cloudy 10 - - - -
21/04:30am 9.5 CALM 0 0 1027.7 - 0.0 - Partly cloudy 10 - - - -
21/04:00am 9.9 CALM 0 0 1027.5 - 0.0 - Partly cloudy 10 - - - -
21/03:30am 10.1 CALM 0 0 1027.4 - 0.0 - Partly cloudy 10 - - - -
21/03:00am 10.6 WSW 1 3 1027.4 - 0.0 - - 10 - - - -
21/02:30am 11.0 W 2 4 1027.6 - 0.0 - Cloudy 10 - - - -
21/02:00am 11.1 CALM 0 2 1027.9 - 0.0 - Cloudy 10 - - - -
21/01:30am 11.2 WSW 3 4 1028.0 - 0.0 - Cloudy 10 - - - -
21/01:00am 11.5 CALM 0 3 1028.2 - 0.0 - Cloudy 10 - - - -
21/12:30am 11.8 SW 2 6 1028.5 - 0.0 - Cloudy 10 - - - -
21/12:00am 12.0 W 3 5 1028.5 - 0.0 - Mostly cloudy 10 - - - -
 
Date/Time
EST
Temp

°C
Wind Pressure Rain
since 9am
mm
Weather Cloud Vis
km
Sea
Height
m
Swell
Dir
 
Speed
knots
Gust
knots
hPa Trend Height
m
Period
s
Dir
20/11:30pm 12.5 WSW 3 5 1028.6 - 0.0 - Cloudy 10 - - - -
20/11:00pm 11.6 WSW 3 4 1028.7 - 0.0 - Cloudy 10 - - - -
20/10:30pm 11.8 WSW 3 4 1028.7 - 0.0 - Cloudy 10 - - - -
20/10:00pm 12.6 WSW 4 7 1028.4 - 0.0 - Partly cloudy 10 - - - -
20/09:30pm 13.5 WSW 4 5 1028.3 - 0.0 - Partly cloudy 10 - - - -
20/09:00pm 14.4 WSW 5 7 1028.2 - 0.0 - Cloudy 10 - - - -
20/08:30pm 15.1 S 8 11 1027.8 - 0.0 - Partly cloudy 10 - - - -

Other Formats:

Comma delimited format used in spreadsheet applications
http://www.bom.gov.au/fwo/IDN60701/IDN60701.95937.axf

JavaScript Object Notation format (JSON) in row-major order
http://www.bom.gov.au/fwo/IDN60701/IDN60701.95937.json